Time;durP1;ratioP1;P1;durP2;ratioP2;P2;SDS_P1;SDS_P2;PMS_P1;PMS_P2;Temp;Humidity;BMP_temperature;BMP_pressure;BME280_temperature;BME280_humidity;BME280_pressure;Samples;Min_cycle;Max_cycle;Signal;HPM_P1;HPM_P2
2023/07/30 05:46:25;;;;;;;7.25;1.90;;;;;;;15.88;100.00;96363.19;2101246;27;20584;-65
2023/07/30 05:51:48;;;;;;;3.65;1.67;;;;;;;15.93;100.00;96338.22;2083393;28;20562;-63
2023/07/30 06:18:54;;;;;;;4.93;1.95;;;;;;;16.86;100.00;96346.47;2089248;28;20564;-63
2023/07/30 06:21:30;;;;;;;2.42;1.52;;;;;;;16.93;100.00;96353.84;2100847;27;20563;-63
2023/07/30 06:22:32;;;;;;;3.80;1.63;;;;;;;16.99;100.00;96355.19;2096399;28;20375;-63
2023/07/30 06:25:08;;;;;;;3.25;1.85;;;;;;;17.54;100.00;96359.84;2084966;28;21312;-63
2023/07/30 06:26:10;;;;;;;2.90;1.35;;;;;;;17.67;100.00;96368.47;2090135;28;20195;-63
2023/07/30 06:27:12;;;;;;;2.50;1.50;;;;;;;17.91;100.00;96360.44;2089259;28;20241;-63
2023/07/30 06:28:13;;;;;;;4.88;1.67;;;;;;;18.34;100.00;96365.94;2081672;28;20193;-64
2023/07/30 06:29:15;;;;;;;2.53;1.45;;;;;;;18.34;98.92;96374.72;2075447;28;20225;-64
2023/07/30 06:30:17;;;;;;;2.63;1.30;;;;;;;18.28;98.02;96378.69;2074703;28;20254;-64
2023/07/30 06:31:18;;;;;;;2.20;1.33;;;;;;;18.32;98.36;96370.50;2073528;28;20201;-64
2023/07/30 06:32:20;;;;;;;2.95;1.50;;;;;;;18.36;97.60;96371.94;2073011;28;20197;-66
2023/07/30 06:33:21;;;;;;;3.90;1.50;;;;;;;18.38;98.47;96370.84;2075163;28;20204;-66
2023/07/30 06:34:25;;;;;;;2.20;1.20;;;;;;;18.54;96.73;96375.75;2071908;28;20229;-65
2023/07/30 06:35:27;;;;;;;5.50;1.70;;;;;;;18.76;95.14;96371.34;2071566;28;20255;-64
2023/07/30 06:36:28;;;;;;;3.13;1.45;;;;;;;18.63;96.39;96376.81;2074223;28;20300;-65
2023/07/30 08:01:31;;;;;;;4.18;1.70;;;;;;;17.17;98.55;96447.09;2085312;28;20568;-64
2023/07/30 08:03:49;;;;;;;4.55;1.40;;;;;;;17.29;98.49;96441.75;2089656;28;20549;-64
2023/07/30 08:04:50;;;;;;;5.40;2.08;;;;;;;17.34;97.73;96441.38;2087544;28;20200;-64
2023/07/30 08:05:52;;;;;;;3.67;1.85;;;;;;;17.38;97.63;96444.63;2087633;28;20189;-64
2023/07/30 08:06:54;;;;;;;4.95;1.45;;;;;;;17.43;96.26;96447.75;2087674;28;20233;-66
2023/07/30 08:07:55;;;;;;;2.92;1.88;;;;;;;17.53;96.14;96451.38;2087249;28;20242;-66
2023/07/30 08:08:57;;;;;;;3.03;1.67;;;;;;;17.67;96.85;96446.84;2086681;28;20224;-66
2023/07/30 08:09:58;;;;;;;5.03;1.75;;;;;;;17.78;94.99;96445.06;2087504;28;20204;-66
2023/07/30 08:11:08;;;;;;;3.13;1.52;;;;;;;17.96;95.08;96447.28;2087336;28;20193;-66
2023/07/30 08:12:09;;;;;;;3.38;1.60;;;;;;;18.12;94.13;96446.94;2087324;28;20200;-66
2023/07/30 08:13:11;;;;;;;2.50;1.65;;;;;;;18.33;94.88;96444.38;2086665;28;20224;-66
2023/07/30 08:14:13;;;;;;;5.25;1.55;;;;;;;18.28;92.33;96447.41;2086204;28;20232;-66
2023/07/30 08:15:14;;;;;;;2.65;1.85;;;;;;;18.54;91.93;96438.38;2087436;28;20700;-66
2023/07/30 08:16:16;;;;;;;5.00;2.10;;;;;;;18.65;91.46;96440.13;2087357;28;20284;-66
2023/07/30 08:17:18;;;;;;;4.82;2.10;;;;;;;18.58;89.52;96437.97;2087124;28;20204;-66
2023/07/30 08:18:20;;;;;;;4.70;1.50;;;;;;;18.69;90.87;96441.56;2087146;28;20269;-66
2023/07/30 08:19:21;;;;;;;2.65;1.42;;;;;;;18.63;91.94;96434.97;2079252;28;20222;-66
2023/07/30 08:20:23;;;;;;;2.80;1.60;;;;;;;18.73;90.94;96433.25;2079061;28;20201;-66
2023/07/30 08:21:24;;;;;;;3.50;1.73;;;;;;;18.81;91.52;96439.75;2078271;28;20205;-66
2023/07/30 08:22:26;;;;;;;2.33;1.42;;;;;;;18.86;92.44;96440.22;2079326;28;20296;-66
2023/07/30 08:23:27;;;;;;;5.00;1.73;;;;;;;18.93;93.29;96436.97;2078853;28;20775;-66
2023/07/30 08:24:29;;;;;;;3.03;1.50;;;;;;;18.95;92.92;96436.84;2079074;28;20288;-67
2023/07/30 08:25:30;;;;;;;3.13;1.50;;;;;;;18.91;90.53;96430.94;2078443;28;20225;-66
2023/07/30 08:26:32;;;;;;;4.55;1.60;;;;;;;18.92;90.33;96434.47;2078897;28;20197;-66
2023/07/30 08:27:34;;;;;;;5.75;1.70;;;;;;;18.88;91.30;96436.47;2078769;28;20286;-66
2023/07/30 08:28:35;;;;;;;3.47;2.00;;;;;;;18.91;90.11;96441.53;2078877;28;20201;-66
2023/07/30 08:29:36;;;;;;;5.15;1.95;;;;;;;19.14;91.53;96430.03;2078404;28;20194;-66
2023/07/30 08:30:40;;;;;;;3.95;1.85;;;;;;;19.22;89.44;96436.38;2077357;28;20244;-67
2023/07/30 08:31:42;;;;;;;6.60;1.90;;;;;;;19.20;88.41;96429.53;2079126;28;20229;-65
2023/07/30 08:32:43;;;;;;;2.40;1.50;;;;;;;19.15;88.96;96423.78;2077964;28;20321;-64
2023/07/30 08:33:45;;;;;;;4.43;1.83;;;;;;;19.19;87.73;96435.78;2078485;28;20197;-64
2023/07/30 08:34:46;;;;;;;4.07;1.48;;;;;;;19.14;87.83;96433.50;2078899;28;20276;-64
2023/07/30 08:35:48;;;;;;;4.05;2.08;;;;;;;19.07;87.76;96438.47;2078875;28;20213;-64
2023/07/30 08:36:50;;;;;;;5.60;1.80;;;;;;;19.04;85.87;96433.44;2078323;28;20196;-64
2023/07/30 08:37:52;;;;;;;5.40;2.08;;;;;;;19.02;87.44;96443.31;2078830;28;20194;-64
2023/07/30 08:38:53;;;;;;;4.32;1.55;;;;;;;18.92;86.59;96443.22;2078099;28;20225;-64
2023/07/30 08:39:55;;;;;;;4.55;1.70;;;;;;;18.73;86.41;96448.31;2078298;28;20205;-64
2023/07/30 08:40:57;;;;;;;3.13;1.50;;;;;;;18.65;86.00;96450.72;2078241;28;20194;-64
2023/07/30 08:41:58;;;;;;;3.35;1.80;;;;;;;18.86;87.44;96445.50;2078798;28;20206;-64
2023/07/30 08:43:02;;;;;;;6.05;2.20;;;;;;;18.96;87.26;96451.75;2078878;28;20194;-64
2023/07/30 08:44:04;;;;;;;4.10;2.28;;;;;;;19.05;86.19;96453.63;2078109;28;20244;-64
2023/07/30 08:45:07;;;;;;;2.75;1.45;;;;;;;18.77;86.16;96455.84;2078902;28;20205;-64
2023/07/30 08:46:08;;;;;;;3.92;1.80;;;;;;;18.73;88.03;96461.53;2078895;28;20220;-64
2023/07/30 08:47:10;;;;;;;4.93;1.60;;;;;;;18.65;89.32;96454.22;2077577;28;20619;-64
2023/07/30 08:48:13;;;;;;;2.63;1.48;;;;;;;18.58;88.10;96458.31;2078030;28;20198;-64
2023/07/30 08:49:14;;;;;;;3.33;1.95;;;;;;;18.57;87.72;96452.16;2077187;28;20259;-64
2023/07/30 08:50:16;;;;;;;4.28;1.90;;;;;;;18.39;86.59;96459.75;2078772;28;20289;-64
2023/07/30 08:51:18;;;;;;;4.30;2.08;;;;;;;18.19;85.72;96458.69;2078899;28;20202;-64
2023/07/30 08:52:22;;;;;;;4.07;1.67;;;;;;;18.13;88.34;96453.88;2077545;28;20780;-64
2023/07/30 08:53:26;;;;;;;4.15;1.80;;;;;;;18.22;88.25;96450.53;2078920;28;20208;-64
2023/07/30 08:54:30;;;;;;;5.45;1.95;;;;;;;18.08;87.83;96451.63;2078479;28;20629;-64
2023/07/30 08:55:37;;;;;;;2.95;1.52;;;;;;;17.95;87.92;96457.03;2078424;28;20247;-64
2023/07/30 08:56:38;;;;;;;3.15;1.80;;;;;;;17.75;87.66;96455.03;2078730;28;20228;-64
2023/07/30 08:57:43;;;;;;;6.82;2.85;;;;;;;17.67;88.48;96462.69;2078490;28;20198;-64
2023/07/30 08:58:46;;;;;;;6.47;1.88;;;;;;;17.58;88.55;96456.31;2077687;28;20665;-66
2023/07/30 08:59:52;;;;;;;5.55;2.63;;;;;;;17.54;87.20;96452.25;2078545;28;20259;-66
2023/07/30 09:00:58;;;;;;;4.90;2.30;;;;;;;17.55;89.02;96453.94;2078597;28;20205;-66
2023/07/30 09:02:01;;;;;;;4.03;1.67;;;;;;;17.63;88.99;96462.91;2078190;28;20664;-66
2023/07/30 09:03:04;;;;;;;3.80;2.20;;;;;;;17.60;88.26;96464.97;2077360;28;20657;-66
2023/07/30 09:04:06;;;;;;;4.63;2.47;;;;;;;17.70;89.04;96465.09;2077638;28;20234;-64
2023/07/30 09:05:09;;;;;;;6.25;1.90;;;;;;;17.80;89.41;96463.44;2078602;28;20259;-65
2023/07/30 09:06:10;;;;;;;7.03;1.95;;;;;;;17.89;90.17;96467.16;2078696;28;20189;-64
2023/07/30 09:07:12;;;;;;;3.30;2.10;;;;;;;17.91;88.83;96467.91;2078069;28;20201;-64
2023/07/30 09:08:14;;;;;;;3.58;1.83;;;;;;;17.90;86.40;96463.56;2077609;28;20198;-64
2023/07/30 09:09:16;;;;;;;3.90;1.80;;;;;;;17.90;86.22;96469.72;2077409;28;20232;-66
2023/07/30 09:10:17;;;;;;;6.78;2.08;;;;;;;17.94;85.44;96465.03;2078802;28;20251;-64
2023/07/30 09:11:20;;;;;;;3.17;1.83;;;;;;;17.91;85.02;96463.44;2078427;28;20710;-65
2023/07/30 09:12:35;;;;;;;4.05;2.15;;;;;;;17.91;86.46;96470.53;2078097;28;20233;-64
2023/07/30 09:13:38;;;;;;;3.33;2.17;;;;;;;18.00;86.89;96469.03;2077451;28;20198;-64
2023/07/30 09:14:40;;;;;;;4.93;2.53;;;;;;;17.92;85.43;96462.50;2076006;28;20198;-64
2023/07/30 09:15:41;;;;;;;5.13;1.80;;;;;;;17.96;86.79;96471.06;2073115;28;20259;-65
2023/07/30 09:16:43;;;;;;;3.75;1.88;;;;;;;17.93;85.28;96472.13;2073130;28;20652;-66
2023/07/30 09:17:45;;;;;;;8.00;2.00;;;;;;;17.98;84.46;96477.06;2072036;28;20201;-67
2023/07/30 09:18:46;;;;;;;5.68;2.50;;;;;;;17.94;85.39;96467.69;2072413;28;20210;-64
2023/07/30 09:19:52;;;;;;;4.95;1.50;;;;;;;18.10;85.83;96467.34;2072257;28;20233;-64
2023/07/30 09:20:54;;;;;;;3.78;1.90;;;;;;;18.30;85.66;96460.50;2073058;28;20195;-66
2023/07/30 09:21:55;;;;;;;4.05;2.00;;;;;;;18.18;84.77;96469.38;2073119;28;20314;-67
2023/07/30 09:22:58;;;;;;;7.30;2.47;;;;;;;18.14;84.66;96474.06;2073015;28;20256;-66
2023/07/30 09:24:06;;;;;;;8.02;1.90;;;;;;;18.21;85.50;96471.81;2072428;28;20226;-66
2023/07/30 09:25:08;;;;;;;5.47;2.30;;;;;;;18.28;86.74;96479.13;2072594;28;20214;-67
2023/07/30 09:26:11;;;;;;;3.17;1.63;;;;;;;18.34;84.25;96471.69;2073285;28;20209;-66
2023/07/30 09:27:12;;;;;;;6.28;2.00;;;;;;;18.32;84.07;96490.31;2072468;28;20771;-66
2023/07/30 09:28:13;;;;;;;6.78;2.30;;;;;;;18.41;84.64;96480.78;2072431;28;20234;-66
2023/07/30 09:29:15;;;;;;;3.92;1.73;;;;;;;18.41;84.61;96481.63;2072827;28;20356;-66
2023/07/30 09:30:24;;;;;;;3.50;2.10;;;;;;;18.26;83.34;96485.50;2072693;28;20272;-66
2023/07/30 09:31:26;;;;;;;5.05;2.05;;;;;;;18.40;85.09;96485.25;2072758;28;20645;-66
2023/07/30 09:32:30;;;;;;;9.90;2.40;;;;;;;18.69;85.67;96487.38;2072874;28;20210;-66
2023/07/30 09:33:32;;;;;;;4.70;1.75;;;;;;;18.59;84.57;96497.00;2071864;28;20194;-66
2023/07/30 09:34:34;;;;;;;4.47;2.20;;;;;;;18.56;83.91;96490.16;2072996;28;20594;-66
2023/07/30 09:35:36;;;;;;;4.75;2.30;;;;;;;18.64;82.35;96484.25;2073138;28;20281;-66
2023/07/30 09:36:37;;;;;;;3.88;2.28;;;;;;;18.84;82.70;96487.09;2072927;28;20293;-67
2023/07/30 09:37:41;;;;;;;5.88;2.00;;;;;;;18.73;81.57;96488.81;2072925;28;20542;-67
2023/07/30 09:38:43;;;;;;;5.38;2.42;;;;;;;18.60;80.12;96488.94;2071186;28;20198;-67
2023/07/30 09:39:48;;;;;;;3.35;2.00;;;;;;;18.62;79.64;96494.09;2072309;28;20811;-67
2023/07/30 09:40:49;;;;;;;4.18;1.95;;;;;;;18.75;77.07;96486.88;2072508;28;20194;-67
2023/07/30 09:41:52;;;;;;;6.13;2.10;;;;;;;18.92;79.21;96492.66;2071889;28;20209;-67
2023/07/30 09:42:57;;;;;;;4.55;2.20;;;;;;;18.98;79.11;96488.66;2072881;28;20194;-67
2023/07/30 09:43:59;;;;;;;4.68;1.95;;;;;;;18.95;77.93;96492.41;2071381;28;20225;-67
2023/07/30 09:45:00;;;;;;;4.03;2.20;;;;;;;18.90;79.64;96491.94;2072800;28;20559;-67
2023/07/30 09:46:04;;;;;;;4.35;2.10;;;;;;;18.84;78.46;96484.44;2072874;28;20199;-69
2023/07/30 09:47:10;;;;;;;3.60;2.30;;;;;;;18.86;76.77;96490.47;2073012;28;20289;-67
2023/07/30 09:48:11;;;;;;;8.45;3.38;;;;;;;18.64;77.99;96494.84;2072665;28;20347;-67
2023/07/30 09:49:13;;;;;;;9.45;5.47;;;;;;;18.76;79.17;96487.72;2071967;28;20309;-67
2023/07/30 09:50:15;;;;;;;3.53;1.80;;;;;;;18.71;78.54;96496.00;2072710;28;20247;-68
2023/07/30 09:51:19;;;;;;;7.15;2.00;;;;;;;18.52;78.35;96504.56;2072039;28;20213;-68
2023/07/30 09:52:21;;;;;;;12.75;2.20;;;;;;;18.27;78.38;96498.59;2073806;28;20210;-68
2023/07/30 09:53:24;;;;;;;6.82;2.00;;;;;;;18.05;78.29;96496.75;2071889;28;20534;-68
2023/07/30 09:54:26;;;;;;;3.80;1.95;;;;;;;18.07;78.82;96501.94;2072139;28;20225;-68
2023/07/30 09:55:28;;;;;;;7.97;2.28;;;;;;;18.07;77.46;96501.94;2073582;28;20202;-68
2023/07/30 09:56:30;;;;;;;4.93;1.98;;;;;;;18.31;78.26;96506.25;2072974;28;20205;-68
2023/07/30 09:57:31;;;;;;;7.90;2.20;;;;;;;18.68;78.49;96504.19;2072843;28;20243;-68
2023/07/30 09:58:35;;;;;;;5.40;1.95;;;;;;;18.87;76.46;96506.22;2072433;28;20232;-68
2023/07/30 09:59:38;;;;;;;5.45;1.90;;;;;;;19.29;75.28;96508.16;2072793;28;20281;-68
2023/07/30 10:00:40;;;;;;;4.40;1.67;;;;;;;19.49;75.49;96509.19;2073060;28;20202;-68
2023/07/30 10:01:49;;;;;;;7.13;2.17;;;;;;;19.67;73.64;96493.56;2072894;28;20198;-68
2023/07/30 10:02:52;;;;;;;4.25;1.70;;;;;;;19.42;73.19;96498.22;2071796;28;20209;-68
2023/07/30 10:03:57;;;;;;;4.18;1.80;;;;;;;19.82;73.67;96506.47;2072136;28;20316;-68
2023/07/30 10:05:05;;;;;;;3.58;1.98;;;;;;;19.57;72.33;96503.25;2072982;28;20258;-68
2023/07/30 10:06:08;;;;;;;7.13;2.00;;;;;;;19.45;72.42;96510.38;2072244;28;20580;-66
2023/07/30 10:07:16;;;;;;;7.50;2.20;;;;;;;19.65;72.95;96506.06;2072520;28;20209;-67
2023/07/30 10:08:23;;;;;;;4.00;1.52;;;;;;;19.79;74.09;96496.97;2071376;28;20292;-66
2023/07/30 10:09:30;;;;;;;4.68;2.38;;;;;;;19.93;73.26;96505.59;2072124;28;20314;-66
2023/07/30 10:10:32;;;;;;;4.70;1.75;;;;;;;20.50;72.20;96511.31;2072688;28;20857;-66
2023/07/30 10:11:35;;;;;;;6.70;2.40;;;;;;;20.11;70.83;96508.47;2072468;28;20206;-67
2023/07/30 10:12:40;;;;;;;7.05;2.35;;;;;;;20.47;71.73;96506.28;2073122;28;20202;-67
2023/07/30 10:13:41;;;;;;;11.20;2.80;;;;;;;20.88;70.24;96513.28;2071794;28;20194;-66
2023/07/30 10:14:44;;;;;;;4.07;2.10;;;;;;;21.07;70.12;96511.66;2072451;28;20226;-67
2023/07/30 10:15:46;;;;;;;5.30;1.98;;;;;;;21.18;68.23;96516.00;2072959;28;20553;-67
2023/07/30 10:16:52;;;;;;;3.03;1.73;;;;;;;21.08;69.53;96510.69;2072411;28;20738;-67
2023/07/30 10:17:56;;;;;;;3.10;1.55;;;;;;;20.78;69.22;96517.72;2071813;28;20213;-66
2023/07/30 10:19:01;;;;;;;4.82;1.95;;;;;;;20.86;69.92;96509.94;2078952;28;20826;-66
2023/07/30 10:20:26;;;;;;;8.75;2.88;;;;;;;20.93;69.39;96507.56;2077898;28;20198;-66
2023/07/30 10:21:29;;;;;;;4.57;2.15;;;;;;;20.91;69.38;96512.16;2071049;28;20926;-66
2023/07/30 10:22:31;;;;;;;3.78;2.15;;;;;;;20.56;69.30;96513.44;2072561;28;20205;-65
2023/07/30 10:23:33;;;;;;;3.10;1.80;;;;;;;20.69;69.05;96502.59;2071147;28;20696;-65
2023/07/30 10:24:35;;;;;;;4.30;2.15;;;;;;;20.69;69.50;96505.25;2071711;28;20608;-65
2023/07/30 10:25:47;;;;;;;3.97;2.08;;;;;;;20.45;70.12;96500.28;2072493;28;20198;-65
2023/07/30 10:26:48;;;;;;;4.30;2.30;;;;;;;20.31;71.10;96510.25;2071223;28;20203;-65
2023/07/30 10:27:51;;;;;;;3.42;2.00;;;;;;;20.35;70.56;96508.19;2072405;28;20199;-65
2023/07/30 10:29:14;;;;;;;5.10;2.05;;;;;;;20.60;70.29;96506.88;2071994;28;20291;-65
2023/07/30 10:30:17;;;;;;;3.58;2.05;;;;;;;21.00;70.43;96518.47;2072023;28;20201;-65
2023/07/30 10:31:19;;;;;;;6.10;1.70;;;;;;;20.99;67.92;96506.19;2070514;28;20255;-65
2023/07/30 10:32:20;;;;;;;3.53;1.95;;;;;;;21.04;66.92;96510.09;2072279;28;20256;-65
2023/07/30 10:33:22;;;;;;;3.75;1.70;;;;;;;20.96;67.18;96509.97;2072552;28;20205;-65
2023/07/30 10:34:43;;;;;;;3.95;1.80;;;;;;;20.50;68.88;96508.66;2071425;28;20230;-65
2023/07/30 10:35:46;;;;;;;3.95;1.73;;;;;;;20.64;69.25;96524.19;2071941;28;20205;-65
2023/07/30 10:36:50;;;;;;;3.90;1.50;;;;;;;20.26;68.10;96509.81;2071704;28;20198;-66
2023/07/30 10:37:51;;;;;;;6.25;2.25;;;;;;;20.09;69.39;96519.22;2072334;28;20697;-65
2023/07/30 10:38:53;;;;;;;6.05;2.00;;;;;;;20.35;69.49;96522.28;2071584;28;20313;-65
2023/07/30 10:39:54;;;;;;;3.20;1.83;;;;;;;20.17;70.02;96514.09;2072409;28;20198;-65
2023/07/30 10:41:18;;;;;;;6.80;1.70;;;;;;;20.34;69.99;96517.09;2072392;28;20205;-65
2023/07/30 10:42:19;;;;;;;4.85;1.83;;;;;;;19.99;69.68;96521.81;2072547;28;20205;-65
2023/07/30 10:43:21;;;;;;;4.93;1.85;;;;;;;19.82;70.56;96519.72;2071856;28;20287;-65
2023/07/30 10:44:33;;;;;;;3.97;1.75;;;;;;;19.89;70.65;96529.69;2071778;28;20619;-65
2023/07/30 10:45:35;;;;;;;4.30;2.08;;;;;;;19.74;70.96;96517.72;2072137;28;20206;-65
2023/07/30 10:46:36;;;;;;;6.40;2.60;;;;;;;19.68;70.79;96518.22;2072118;28;20198;-65
2023/07/30 10:47:40;;;;;;;4.40;2.25;;;;;;;19.70;71.79;96522.41;2071670;28;20269;-65
2023/07/30 10:48:44;;;;;;;4.72;2.00;;;;;;;19.82;71.00;96527.66;2071431;28;20198;-65
2023/07/30 10:49:46;;;;;;;5.18;1.92;;;;;;;19.49;71.76;96538.31;2072581;28;20622;-66
2023/07/30 10:50:48;;;;;;;3.47;2.05;;;;;;;19.36;71.96;96533.19;2071993;28;20236;-65
2023/07/30 10:51:55;;;;;;;4.80;2.50;;;;;;;19.48;71.71;96531.31;2072369;28;20194;-66
2023/07/30 10:52:57;;;;;;;7.53;2.40;;;;;;;19.53;72.69;96538.88;2072097;28;20186;-65
2023/07/30 10:54:07;;;;;;;4.55;1.73;;;;;;;19.28;72.44;96538.25;2071782;28;20225;-65
2023/07/30 10:55:08;;;;;;;4.35;1.70;;;;;;;19.29;74.02;96537.28;2071773;28;20198;-65
2023/07/30 10:56:11;;;;;;;5.07;1.67;;;;;;;19.29;73.60;96539.06;2071877;28;20198;-65
2023/07/30 10:57:13;;;;;;;3.80;1.75;;;;;;;19.13;74.26;96534.22;2072265;28;20288;-65
2023/07/30 10:58:16;;;;;;;3.72;2.13;;;;;;;18.92;73.56;96538.47;2072302;28;20202;-65
2023/07/30 10:59:19;;;;;;;6.45;2.35;;;;;;;18.71;75.07;96538.31;2071840;28;20233;-65
2023/07/30 11:00:22;;;;;;;2.45;1.50;;;;;;;18.63;75.33;96532.81;2071884;28;20765;-64
2023/07/30 11:01:26;;;;;;;5.88;2.50;;;;;;;18.56;75.57;96543.03;2072082;28;20198;-65
2023/07/30 11:02:29;;;;;;;6.40;2.20;;;;;;;18.41;75.28;96538.94;2072210;28;20624;-65
2023/07/30 11:03:32;;;;;;;4.97;1.70;;;;;;;18.38;76.31;96541.84;2071557;28;20238;-65
2023/07/30 11:04:34;;;;;;;4.40;1.90;;;;;;;18.36;75.88;96541.09;2072159;28;20206;-66
2023/07/30 11:05:39;;;;;;;4.25;2.25;;;;;;;18.30;76.70;96541.56;2072069;28;20194;-66
2023/07/30 11:06:47;;;;;;;3.90;1.90;;;;;;;18.26;76.66;96544.47;2070899;28;20197;-66
2023/07/30 11:07:50;;;;;;;4.80;2.10;;;;;;;18.17;77.28;96531.09;2071797;28;20280;-66
2023/07/30 11:08:52;;;;;;;6.88;2.42;;;;;;;18.32;77.08;96537.00;2071236;28;20288;-66
2023/07/30 11:10:03;;;;;;;4.70;1.75;;;;;;;18.35;76.01;96532.34;2071560;28;20220;-66
2023/07/30 11:11:07;;;;;;;9.93;2.10;;;;;;;18.54;75.25;96542.31;2071635;28;20217;-66
2023/07/30 11:12:08;;;;;;;3.15;1.75;;;;;;;19.05;74.98;96548.88;2071389;28;20205;-66
2023/07/30 11:13:11;;;;;;;4.90;2.20;;;;;;;19.65;72.71;96551.09;2072336;28;20251;-66
2023/07/30 11:14:17;;;;;;;3.08;1.65;;;;;;;19.65;72.79;96534.38;2071835;28;20230;-66
2023/07/30 11:15:18;;;;;;;4.47;2.22;;;;;;;19.91;71.75;96542.84;2071471;28;20225;-66
2023/07/30 11:16:20;;;;;;;4.68;1.60;;;;;;;20.05;72.44;96544.31;2072243;28;20222;-66
2023/07/30 11:17:24;;;;;;;5.65;2.00;;;;;;;20.74;70.59;96547.31;2071948;28;20198;-66
2023/07/30 11:18:31;;;;;;;9.52;2.38;;;;;;;20.83;69.79;96536.72;2072288;28;20660;-67
2023/07/30 11:19:33;;;;;;;5.53;1.73;;;;;;;20.93;69.75;96541.25;2071285;28;20233;-66
2023/07/30 11:20:36;;;;;;;6.30;1.80;;;;;;;21.21;68.89;96548.41;2071942;28;20356;-66
2023/07/30 11:21:44;;;;;;;5.45;2.30;;;;;;;21.52;68.58;96550.97;2072178;28;20285;-66
2023/07/30 11:22:45;;;;;;;6.05;1.50;;;;;;;21.63;68.69;96543.88;2072041;28;20194;-67
2023/07/30 11:23:47;;;;;;;4.55;2.00;;;;;;;21.60;68.56;96549.44;2071753;28;20190;-67
2023/07/30 11:24:48;;;;;;;4.18;1.95;;;;;;;22.01;68.01;96550.13;2071949;28;20281;-67
2023/07/30 11:25:50;;;;;;;3.00;1.83;;;;;;;21.60;67.92;96545.00;2072020;28;20293;-67
2023/07/30 11:27:00;;;;;;;4.28;1.67;;;;;;;21.88;67.54;96550.44;2071799;28;20289;-67
2023/07/30 11:28:02;;;;;;;4.32;2.10;;;;;;;21.71;67.64;96543.16;2071558;28;20284;-66
2023/07/30 11:29:19;;;;;;;4.00;1.75;;;;;;;21.46;67.64;96546.22;2071587;28;20233;-67
2023/07/30 11:30:22;;;;;;;3.03;1.58;;;;;;;21.29;68.19;96541.56;2072025;28;20194;-66
2023/07/30 11:31:26;;;;;;;7.68;2.13;;;;;;;21.34;67.98;96548.16;2071501;28;20285;-66
2023/07/30 11:32:30;;;;;;;3.95;1.77;;;;;;;21.78;67.99;96549.59;2072007;28;20234;-67
2023/07/30 11:33:32;;;;;;;3.80;2.40;;;;;;;21.70;68.38;96545.00;2070883;28;20206;-66
2023/07/30 11:34:38;;;;;;;3.65;1.98;;;;;;;21.41;67.88;96545.78;2071985;28;20206;-67
2023/07/30 11:35:40;;;;;;;4.97;1.73;;;;;;;20.94;68.17;96548.19;2071742;28;20194;-67
2023/07/30 11:36:43;;;;;;;5.10;1.67;;;;;;;20.99;67.79;96554.78;2072067;28;20248;-67
2023/07/30 11:37:45;;;;;;;5.28;2.13;;;;;;;20.97;68.44;96540.81;2071666;28;20247;-66
2023/07/30 11:38:47;;;;;;;3.22;1.70;;;;;;;21.16;68.66;96541.84;2071555;28;20201;-66
2023/07/30 11:39:48;;;;;;;4.68;2.10;;;;;;;21.51;68.31;96554.59;2071930;28;20201;-67
2023/07/30 11:40:51;;;;;;;6.47;1.50;;;;;;;21.75;68.86;96553.38;2071803;28;20198;-66
2023/07/30 11:41:53;;;;;;;6.32;2.10;;;;;;;22.29;66.98;96544.88;2071480;28;20202;-67
2023/07/30 11:42:54;;;;;;;4.38;2.22;;;;;;;22.44;65.68;96546.13;2071888;28;20203;-67
2023/07/30 11:43:56;;;;;;;4.00;2.05;;;;;;;22.13;66.92;96550.78;2071212;28;20226;-67
2023/07/30 11:44:57;;;;;;;4.05;1.70;;;;;;;21.46;66.54;96545.38;2071885;28;20198;-67
2023/07/30 11:46:17;;;;;;;4.22;1.75;;;;;;;21.40;67.93;96549.41;2071957;28;20202;-67
2023/07/30 11:47:24;;;;;;;4.32;1.70;;;;;;;21.41;67.47;96545.78;2071867;28;20576;-67
2023/07/30 11:48:26;;;;;;;3.25;1.67;;;;;;;21.10;67.67;96553.81;2071096;28;20205;-67
2023/07/30 11:49:27;;;;;;;5.22;1.73;;;;;;;20.92;67.95;96552.81;2070635;28;20356;-67
2023/07/30 11:50:45;;;;;;;3.88;1.80;;;;;;;20.66;69.52;96554.09;2071421;28;20229;-67
2023/07/30 11:51:48;;;;;;;6.60;2.10;;;;;;;21.39;69.54;96538.94;2071640;28;20642;-67
2023/07/30 11:52:56;;;;;;;3.05;1.85;;;;;;;21.88;68.62;96550.44;2071399;28;20190;-67
2023/07/30 11:54:00;;;;;;;4.15;2.03;;;;;;;21.82;67.56;96548.34;2070445;28;20224;-67
2023/07/30 11:55:03;;;;;;;5.20;1.92;;;;;;;22.18;67.12;96546.75;2072035;28;20206;-67
2023/07/30 11:56:04;;;;;;;5.82;1.90;;;;;;;22.91;65.85;96553.22;2071719;28;20209;-67
2023/07/30 11:57:06;;;;;;;4.93;2.00;;;;;;;23.17;65.57;96549.88;2071946;28;20200;-67
2023/07/30 11:58:09;;;;;;;5.97;1.80;;;;;;;22.84;65.07;96552.13;2070654;28;20202;-67
2023/07/30 11:59:11;;;;;;;6.05;1.60;;;;;;;22.91;64.83;96557.72;2071413;28;20614;-67
2023/07/30 12:00:13;;;;;;;2.55;1.42;;;;;;;22.67;65.07;96557.25;2071760;28;20558;-68
2023/07/30 12:01:18;;;;;;;8.13;2.90;;;;;;;22.92;65.01;96557.56;2071683;28;20280;-68
2023/07/30 12:02:20;;;;;;;3.83;1.30;;;;;;;22.89;64.82;96552.50;2071834;28;20193;-69
2023/07/30 12:03:21;;;;;;;5.05;2.17;;;;;;;23.06;65.74;96555.38;2071724;28;20781;-69
2023/07/30 12:04:24;;;;;;;3.80;1.50;;;;;;;23.44;64.55;96550.84;2071277;28;20222;-68
2023/07/30 12:05:36;;;;;;;3.53;1.40;;;;;;;22.70;65.08;96547.28;2071335;28;21141;-69
2023/07/30 12:06:39;;;;;;;4.45;2.10;;;;;;;22.95;65.20;96556.44;2071634;28;20198;-69
2023/07/30 12:07:44;;;;;;;12.50;1.98;;;;;;;22.96;64.73;96563.44;2071303;28;20276;-68
2023/07/30 12:08:48;;;;;;;3.60;1.58;;;;;;;23.31;63.35;96551.19;2071036;28;20682;-68
2023/07/30 12:09:50;;;;;;;2.60;1.27;;;;;;;23.66;63.44;96562.03;2071931;28;20616;-68
2023/07/30 12:10:52;;;;;;;4.50;1.80;;;;;;;23.80;61.79;96558.81;2071900;28;20285;-68
2023/07/30 12:11:59;;;;;;;6.15;2.00;;;;;;;24.30;61.20;96565.38;2071926;28;20686;-68
2023/07/30 12:13:00;;;;;;;4.65;1.77;;;;;;;23.21;60.67;96563.72;2071612;28;20731;-69
2023/07/30 12:14:02;;;;;;;3.50;1.60;;;;;;;23.44;61.05;96559.66;2071330;28;20636;-69
2023/07/30 12:15:11;;;;;;;4.10;1.80;;;;;;;23.09;62.29;96566.56;2070827;28;20252;-68
2023/07/30 12:16:13;;;;;;;4.07;2.38;;;;;;;23.26;62.91;96567.63;2070875;28;20213;-69
2023/07/30 12:17:15;;;;;;;9.40;2.00;;;;;;;23.22;63.81;96566.25;2071450;28;20194;-69
2023/07/30 12:18:17;;;;;;;7.15;2.30;;;;;;;22.80;64.85;96559.59;2071508;28;20198;-68
2023/07/30 12:19:18;;;;;;;2.60;1.30;;;;;;;22.26;65.89;96559.31;2070194;28;20732;-68
2023/07/30 12:20:20;;;;;;;4.30;1.65;;;;;;;21.89;66.85;96568.06;2070948;28;20785;-68
2023/07/30 12:21:21;;;;;;;7.45;1.63;;;;;;;21.97;66.49;96564.69;2071585;28;20309;-68
2023/07/30 12:22:23;;;;;;;3.53;1.90;;;;;;;21.68;66.93;96562.88;2071572;28;20237;-68
2023/07/30 12:23:24;;;;;;;4.88;1.80;;;;;;;21.81;66.84;96573.22;2071884;28;20646;-68
2023/07/30 12:24:26;;;;;;;3.88;1.65;;;;;;;21.72;67.09;96558.97;2071137;28;20312;-68
2023/07/30 12:25:27;;;;;;;7.95;2.10;;;;;;;21.62;67.07;96558.13;2071491;28;20822;-68
2023/07/30 12:26:29;;;;;;;5.30;1.85;;;;;;;21.78;66.26;96565.53;2071617;28;20256;-68
2023/07/30 12:27:30;;;;;;;3.67;2.03;;;;;;;21.38;66.25;96564.63;2071436;28;20236;-68
2023/07/30 12:28:33;;;;;;;5.55;1.95;;;;;;;21.39;66.27;96562.84;2070747;28;20195;-68
2023/07/30 12:29:35;;;;;;;10.27;1.88;;;;;;;21.71;65.73;96575.88;2070978;28;20230;-68
2023/07/30 12:30:36;;;;;;;7.47;2.10;;;;;;;21.84;66.07;96575.63;2071628;28;20233;-68
2023/07/30 12:31:38;;;;;;;4.07;1.55;;;;;;;22.55;65.34;96579.72;2071715;28;20748;-68
2023/07/30 12:32:40;;;;;;;4.30;1.80;;;;;;;22.49;64.29;96574.97;2071119;28;20719;-68
2023/07/30 12:33:43;;;;;;;4.00;1.88;;;;;;;22.26;63.87;96572.63;2070020;28;20287;-68
2023/07/30 12:34:44;;;;;;;7.68;1.70;;;;;;;22.38;63.43;96572.47;2070698;28;20198;-69
2023/07/30 12:35:46;;;;;;;4.75;1.55;;;;;;;21.96;65.23;96584.28;2071625;28;20198;-68
2023/07/30 12:36:47;;;;;;;3.97;1.65;;;;;;;22.38;64.13;96583.94;2071624;28;20194;-68
2023/07/30 12:37:49;;;;;;;4.07;2.13;;;;;;;22.74;62.80;96576.16;2071643;28;20203;-68
2023/07/30 12:38:53;;;;;;;2.78;1.38;;;;;;;22.47;63.09;96583.09;2070743;28;20221;-69
2023/07/30 12:39:55;;;;;;;3.88;1.58;;;;;;;22.61;62.24;96579.13;2070015;28;20226;-68
2023/07/30 12:40:56;;;;;;;7.15;1.90;;;;;;;22.66;61.90;96571.56;2071545;28;20194;-69
2023/07/30 12:41:57;;;;;;;3.03;1.52;;;;;;;22.71;62.38;96581.75;2071439;28;20679;-69
2023/07/30 12:43:03;;;;;;;3.78;1.63;;;;;;;22.45;61.34;96570.94;2071562;28;20287;-69